LRC668 SKCG-MROC
Flight info
| Callsign | LRC668 |
|---|---|
| Flight time | 1h 30m |
| Altitude | 36000 |
| Route | ALGEN UM796 LIO/N0456F370 DCT ISEBA CUARE4I |
| Aircraft | A320/M-SDE3FGHIRWY/LB1 |
Departure
| Time | 2026-04-24 21:38 |
|---|---|
| Airport | Rafael Nuñez International Airport (SKCG) |
Arrival
| Time | 2026-04-24 23:08 |
|---|---|
| Airport | Juan Santamaría International Airport (MROC) |
| Time | Latitude | Longitude | Altitude | Speed | Heading |
|---|---|---|---|---|---|
| 2026-04-24 20:40 | 10.44718 | -75.51407 | 51 ft | 0 kts | 2° |
| 2026-04-24 21:25 | 10.44700 | -75.51408 | 51 ft | 4 kts | 9° |
| 2026-04-24 21:25 | 10.44675 | -75.51414 | 50 ft | 4 kts | 23° |
| 2026-04-24 21:26 | 10.44651 | -75.51428 | 47 ft | 4 kts | 44° |
| 2026-04-24 21:26 | 10.44637 | -75.51449 | 47 ft | 4 kts | 86° |
| 2026-04-24 21:26 | 10.44637 | -75.51458 | 47 ft | 0 kts | 92° |
| 2026-04-24 21:32 | 10.44636 | -75.51444 | 47 ft | 4 kts | 92° |
| 2026-04-24 21:32 | 10.44635 | -75.51406 | 49 ft | 7 kts | 90° |
| 2026-04-24 21:32 | 10.44648 | -75.51358 | 49 ft | 7 kts | 70° |
| 2026-04-24 21:33 | 10.44648 | -75.51311 | 51 ft | 7 kts | 101° |
| 2026-04-24 21:33 | 10.44618 | -75.51278 | 51 ft | 10 kts | 155° |
| 2026-04-24 21:33 | 10.44530 | -75.51278 | 51 ft | 9 kts | 182° |
| 2026-04-24 21:33 | 10.44442 | -75.51281 | 51 ft | 20 kts | 182° |
| 2026-04-24 21:34 | 10.44266 | -75.51288 | 51 ft | 27 kts | 182° |
| 2026-04-24 21:34 | 10.44077 | -75.51297 | 51 ft | 28 kts | 182° |
| 2026-04-24 21:34 | 10.43881 | -75.51304 | 48 ft | 29 kts | 182° |
| 2026-04-24 21:34 | 10.43680 | -75.51313 | 48 ft | 29 kts | 183° |
| 2026-04-24 21:35 | 10.43473 | -75.51321 | 48 ft | 29 kts | 182° |
| 2026-04-24 21:35 | 10.43313 | -75.51328 | 51 ft | 12 kts | 182° |
| 2026-04-24 21:35 | 10.43238 | -75.51320 | 51 ft | 10 kts | 150° |
| 2026-04-24 21:35 | 10.43187 | -75.51275 | 51 ft | 9 kts | 136° |
| 2026-04-24 21:36 | 10.43142 | -75.51236 | 51 ft | 8 kts | 152° |
| 2026-04-24 21:36 | 10.43090 | -75.51234 | 50 ft | 9 kts | 199° |
| 2026-04-24 21:36 | 10.43067 | -75.51291 | 51 ft | 9 kts | 271° |
| 2026-04-24 21:36 | 10.43082 | -75.51339 | 50 ft | 6 kts | 336° |
| 2026-04-24 21:37 | 10.43097 | -75.51338 | 51 ft | 0 kts | 3° |
| 2026-04-24 21:37 | 10.43175 | -75.51334 | 51 ft | 43 kts | 2° |
| 2026-04-24 21:38 | 10.43740 | -75.51310 | 51 ft | 115 kts | 2° |
| 2026-04-24 21:38 | 10.44736 | -75.51270 | 110 ft | 164 kts | 359° |
| 2026-04-24 21:38 | 10.45840 | -75.51224 | 903 ft | 157 kts | 360° |
| 2026-04-24 21:38 | 10.46938 | -75.51183 | 1620 ft | 159 kts | 360° |
| 2026-04-24 21:39 | 10.48023 | -75.51149 | 2243 ft | 157 kts | 0° |
| 2026-04-24 21:39 | 10.49127 | -75.51114 | 2789 ft | 158 kts | 0° |
| 2026-04-24 21:39 | 10.50238 | -75.51078 | 3308 ft | 162 kts | 1° |
| 2026-04-24 21:39 | 10.51416 | -75.51039 | 3655 ft | 177 kts | 1° |
| 2026-04-24 21:40 | 10.52669 | -75.50999 | 4046 ft | 188 kts | 1° |
| 2026-04-24 21:40 | 10.54024 | -75.51090 | 4406 ft | 201 kts | 348° |
| 2026-04-24 21:40 | 10.55415 | -75.51497 | 4691 ft | 217 kts | 335° |
| 2026-04-24 21:40 | 10.56775 | -75.52257 | 4978 ft | 233 kts | 323° |
| 2026-04-24 21:41 | 10.58035 | -75.53433 | 5271 ft | 257 kts | 308° |
| 2026-04-24 21:41 | 10.59013 | -75.55019 | 5794 ft | 271 kts | 292° |
| 2026-04-24 21:41 | 10.59545 | -75.56877 | 6569 ft | 275 kts | 277° |
| 2026-04-24 21:41 | 10.59550 | -75.58817 | 7351 ft | 279 kts | 261° |
| 2026-04-24 21:42 | 10.58998 | -75.60713 | 8162 ft | 282 kts | 245° |
| 2026-04-24 21:42 | 10.57924 | -75.62389 | 8989 ft | 285 kts | 229° |
| 2026-04-24 21:42 | 10.56416 | -75.63687 | 9790 ft | 289 kts | 212° |
| 2026-04-24 21:42 | 10.54548 | -75.64494 | 10500 ft | 294 kts | 195° |
| 2026-04-24 21:43 | 10.52519 | -75.64696 | 11205 ft | 300 kts | 177° |
| 2026-04-24 21:43 | 10.50454 | -75.64248 | 11907 ft | 307 kts | 160° |
| 2026-04-24 21:43 | 10.48440 | -75.63353 | 12215 ft | 327 kts | 157° |
| 2026-04-24 21:43 | 10.46294 | -75.62366 | 12375 ft | 350 kts | 157° |
| 2026-04-24 21:44 | 10.44012 | -75.61308 | 12621 ft | 367 kts | 156° |
| 2026-04-24 21:44 | 10.41689 | -75.60228 | 13170 ft | 373 kts | 157° |
| 2026-04-24 21:44 | 10.39308 | -75.59121 | 13794 ft | 377 kts | 157° |
| 2026-04-24 21:44 | 10.36900 | -75.58007 | 14360 ft | 381 kts | 157° |
| 2026-04-24 21:45 | 10.34467 | -75.56885 | 14919 ft | 385 kts | 157° |
| 2026-04-24 21:45 | 10.31998 | -75.55783 | 15483 ft | 388 kts | 162° |
| 2026-04-24 21:45 | 10.29348 | -75.55245 | 16013 ft | 388 kts | 180° |
| 2026-04-24 21:45 | 10.26703 | -75.55561 | 16537 ft | 389 kts | 198° |
| 2026-04-24 21:46 | 10.24256 | -75.56718 | 17071 ft | 389 kts | 216° |
| 2026-04-24 21:46 | 10.22272 | -75.58605 | 17583 ft | 391 kts | 233° |
| 2026-04-24 21:46 | 10.20958 | -75.61013 | 18100 ft | 392 kts | 251° |
| 2026-04-24 21:46 | 10.20435 | -75.63699 | 18536 ft | 395 kts | 267° |
| 2026-04-24 21:47 | 10.20340 | -75.66507 | 18984 ft | 398 kts | 268° |
| 2026-04-24 21:47 | 10.20283 | -75.68382 | 19283 ft | 399 kts | 268° |
| 2026-04-24 21:47 | 10.20171 | -75.72168 | 19905 ft | 402 kts | 268° |
| 2026-04-24 21:47 | 10.20085 | -75.74988 | 20351 ft | 405 kts | 268° |
| 2026-04-24 21:48 | 10.19996 | -75.77851 | 20801 ft | 407 kts | 268° |
| 2026-04-24 21:48 | 10.19906 | -75.80742 | 21241 ft | 409 kts | 268° |
| 2026-04-24 21:48 | 10.19816 | -75.83631 | 21677 ft | 412 kts | 268° |
| 2026-04-24 21:48 | 10.19725 | -75.86556 | 22107 ft | 414 kts | 268° |
| 2026-04-24 21:49 | 10.19633 | -75.89497 | 22535 ft | 416 kts | 268° |
| 2026-04-24 21:49 | 10.19542 | -75.92410 | 22944 ft | 419 kts | 268° |
| 2026-04-24 21:49 | 10.19452 | -75.95387 | 23357 ft | 421 kts | 268° |
| 2026-04-24 21:49 | 10.19360 | -75.98375 | 23706 ft | 424 kts | 268° |
| 2026-04-24 21:50 | 10.19268 | -76.01340 | 24032 ft | 426 kts | 268° |
| 2026-04-24 21:50 | 10.19175 | -76.04361 | 24361 ft | 428 kts | 268° |
| 2026-04-24 21:50 | 10.19079 | -76.07411 | 24695 ft | 431 kts | 268° |
| 2026-04-24 21:50 | 10.19013 | -76.09428 | 24895 ft | 432 kts | 268° |
| 2026-04-24 21:51 | 10.18877 | -76.13495 | 25330 ft | 435 kts | 268° |
| 2026-04-24 21:51 | 10.18775 | -76.16571 | 25659 ft | 437 kts | 268° |
| 2026-04-24 21:51 | 10.18707 | -76.18661 | 25866 ft | 439 kts | 268° |
| 2026-04-24 21:51 | 10.18607 | -76.21729 | 26186 ft | 441 kts | 267° |
| 2026-04-24 21:52 | 10.18506 | -76.24854 | 26509 ft | 443 kts | 267° |
| 2026-04-24 21:52 | 10.18374 | -76.29027 | 26933 ft | 446 kts | 267° |
| 2026-04-24 21:52 | 10.18305 | -76.31165 | 27142 ft | 448 kts | 267° |
| 2026-04-24 21:52 | 10.18202 | -76.34295 | 27440 ft | 450 kts | 267° |
| 2026-04-24 21:53 | 10.18098 | -76.37481 | 27731 ft | 452 kts | 267° |
| 2026-04-24 21:53 | 10.17990 | -76.40689 | 28032 ft | 454 kts | 267° |
| 2026-04-24 21:53 | 10.17882 | -76.43890 | 28321 ft | 456 kts | 267° |
| 2026-04-24 21:53 | 10.17773 | -76.47126 | 28605 ft | 458 kts | 267° |
| 2026-04-24 21:54 | 10.17666 | -76.50341 | 28886 ft | 460 kts | 267° |
| 2026-04-24 21:54 | 10.17560 | -76.53598 | 29165 ft | 462 kts | 267° |
| 2026-04-24 21:54 | 10.17453 | -76.56837 | 29474 ft | 462 kts | 267° |
| 2026-04-24 21:54 | 10.17346 | -76.60095 | 29891 ft | 461 kts | 267° |
| 2026-04-24 21:55 | 10.17239 | -76.63343 | 30243 ft | 460 kts | 266° |
| 2026-04-24 21:55 | 10.17131 | -76.66594 | 30575 ft | 459 kts | 266° |
| 2026-04-24 21:55 | 10.17021 | -76.69855 | 30900 ft | 459 kts | 266° |
| 2026-04-24 21:55 | 10.16911 | -76.73057 | 31216 ft | 459 kts | 266° |
| 2026-04-24 21:56 | 10.16799 | -76.76307 | 31544 ft | 459 kts | 266° |
| 2026-04-24 21:56 | 10.16689 | -76.79541 | 31871 ft | 458 kts | 266° |
| 2026-04-24 21:56 | 10.16582 | -76.82788 | 32206 ft | 458 kts | 265° |
| 2026-04-24 21:56 | 10.16476 | -76.86025 | 32539 ft | 458 kts | 265° |
| 2026-04-24 21:57 | 10.16369 | -76.89218 | 32862 ft | 458 kts | 265° |
| 2026-04-24 21:57 | 10.16259 | -76.92452 | 33187 ft | 457 kts | 265° |
| 2026-04-24 21:57 | 10.16148 | -76.95677 | 33512 ft | 457 kts | 265° |
| 2026-04-24 21:57 | 10.16033 | -76.98916 | 33845 ft | 457 kts | 265° |
| 2026-04-24 21:58 | 10.15917 | -77.02138 | 34143 ft | 457 kts | 265° |
| 2026-04-24 21:58 | 10.15803 | -77.05375 | 34467 ft | 455 kts | 265° |
| 2026-04-24 21:58 | 10.15692 | -77.08530 | 34814 ft | 453 kts | 265° |
| 2026-04-24 21:58 | 10.15576 | -77.11736 | 35179 ft | 451 kts | 265° |
| 2026-04-24 21:59 | 10.15460 | -77.14913 | 35519 ft | 450 kts | 265° |
| 2026-04-24 21:59 | 10.15347 | -77.18079 | 35810 ft | 449 kts | 265° |
| 2026-04-24 21:59 | 10.15237 | -77.21261 | 35880 ft | 448 kts | 265° |
| 2026-04-24 22:00 | 10.15018 | -77.27587 | 35890 ft | 448 kts | 265° |
| 2026-04-24 22:00 | 10.14796 | -77.33875 | 35889 ft | 448 kts | 265° |
| 2026-04-24 22:01 | 10.14576 | -77.40202 | 35887 ft | 447 kts | 265° |
| 2026-04-24 22:01 | 10.14348 | -77.46520 | 35888 ft | 447 kts | 265° |
| 2026-04-24 22:02 | 10.14115 | -77.52815 | 35886 ft | 447 kts | 265° |
| 2026-04-24 22:02 | 10.13880 | -77.59145 | 35884 ft | 447 kts | 265° |
| 2026-04-24 22:03 | 10.13652 | -77.65429 | 35884 ft | 448 kts | 265° |
| 2026-04-24 22:03 | 10.13419 | -77.71778 | 35883 ft | 448 kts | 265° |
| 2026-04-24 22:04 | 10.13187 | -77.78074 | 35883 ft | 448 kts | 265° |
| 2026-04-24 22:04 | 10.12953 | -77.84413 | 35878 ft | 448 kts | 265° |
| 2026-04-24 22:05 | 10.12721 | -77.90704 | 35886 ft | 448 kts | 265° |
| 2026-04-24 22:05 | 10.12486 | -77.97037 | 35894 ft | 448 kts | 265° |
| 2026-04-24 22:06 | 10.12245 | -78.03328 | 35890 ft | 448 kts | 265° |
| 2026-04-24 22:06 | 10.11998 | -78.09654 | 35893 ft | 448 kts | 265° |
| 2026-04-24 22:07 | 10.11757 | -78.15995 | 35890 ft | 448 kts | 265° |
| 2026-04-24 22:07 | 10.11517 | -78.22329 | 35886 ft | 448 kts | 265° |
| 2026-04-24 22:08 | 10.11275 | -78.28657 | 35888 ft | 448 kts | 265° |
| 2026-04-24 22:08 | 10.11033 | -78.34942 | 35888 ft | 448 kts | 265° |
| 2026-04-24 22:09 | 10.10782 | -78.41284 | 35885 ft | 448 kts | 265° |
| 2026-04-24 22:09 | 10.10531 | -78.47584 | 35889 ft | 448 kts | 265° |
| 2026-04-24 22:10 | 10.10288 | -78.53913 | 35889 ft | 448 kts | 265° |
| 2026-04-24 22:10 | 10.10044 | -78.60256 | 35890 ft | 448 kts | 265° |
| 2026-04-24 22:11 | 10.09797 | -78.66556 | 35887 ft | 448 kts | 265° |
| 2026-04-24 22:11 | 10.09540 | -78.72896 | 35886 ft | 448 kts | 265° |
| 2026-04-24 22:12 | 10.09282 | -78.79187 | 35888 ft | 448 kts | 265° |
| 2026-04-24 22:12 | 10.09027 | -78.85497 | 35887 ft | 448 kts | 265° |
| 2026-04-24 22:13 | 10.08769 | -78.91818 | 35885 ft | 448 kts | 265° |
| 2026-04-24 22:13 | 10.08515 | -78.98151 | 35888 ft | 448 kts | 265° |
| 2026-04-24 22:14 | 10.08266 | -79.04440 | 35888 ft | 447 kts | 265° |
| 2026-04-24 22:14 | 10.08013 | -79.10725 | 35890 ft | 447 kts | 265° |
| 2026-04-24 22:15 | 10.07745 | -79.17040 | 35887 ft | 447 kts | 265° |
| 2026-04-24 22:15 | 10.07481 | -79.23346 | 35889 ft | 447 kts | 265° |
| 2026-04-24 22:16 | 10.07217 | -79.29655 | 35889 ft | 446 kts | 265° |
| 2026-04-24 22:16 | 10.06961 | -79.35932 | 35890 ft | 446 kts | 265° |
| 2026-04-24 22:17 | 10.06695 | -79.42241 | 35885 ft | 446 kts | 265° |
| 2026-04-24 22:17 | 10.06428 | -79.48509 | 35886 ft | 446 kts | 266° |
| 2026-04-24 22:18 | 10.06167 | -79.54802 | 35884 ft | 445 kts | 266° |
| 2026-04-24 22:18 | 10.05906 | -79.61050 | 35886 ft | 445 kts | 265° |
| 2026-04-24 22:19 | 10.05632 | -79.67337 | 35882 ft | 445 kts | 265° |
| 2026-04-24 22:19 | 10.05363 | -79.73595 | 35884 ft | 445 kts | 266° |
| 2026-04-24 22:20 | 10.05086 | -79.79886 | 35883 ft | 445 kts | 265° |
| 2026-04-24 22:20 | 10.04810 | -79.86129 | 35880 ft | 445 kts | 266° |
| 2026-04-24 22:21 | 10.04540 | -79.92399 | 35880 ft | 445 kts | 266° |
| 2026-04-24 22:21 | 10.04273 | -79.98691 | 35879 ft | 445 kts | 266° |
| 2026-04-24 22:22 | 10.04000 | -80.04950 | 35877 ft | 445 kts | 266° |
| 2026-04-24 22:22 | 10.03722 | -80.11245 | 35874 ft | 445 kts | 266° |
| 2026-04-24 22:23 | 10.03443 | -80.17516 | 35875 ft | 446 kts | 266° |
| 2026-04-24 22:23 | 10.03161 | -80.23769 | 35876 ft | 446 kts | 266° |
| 2026-04-24 22:24 | 10.02888 | -80.30070 | 35875 ft | 446 kts | 266° |
| 2026-04-24 22:24 | 10.02604 | -80.36346 | 35872 ft | 446 kts | 265° |
| 2026-04-24 22:25 | 10.02317 | -80.42632 | 35874 ft | 447 kts | 266° |
| 2026-04-24 22:25 | 10.02039 | -80.48942 | 35876 ft | 447 kts | 266° |
| 2026-04-24 22:26 | 10.01752 | -80.55211 | 35875 ft | 447 kts | 265° |
| 2026-04-24 22:26 | 10.01459 | -80.61528 | 35880 ft | 447 kts | 266° |
| 2026-04-24 22:27 | 10.01168 | -80.67844 | 35881 ft | 447 kts | 266° |
| 2026-04-24 22:27 | 10.00886 | -80.74112 | 35879 ft | 447 kts | 266° |
| 2026-04-24 22:28 | 10.00605 | -80.80443 | 35882 ft | 447 kts | 266° |
| 2026-04-24 22:28 | 10.00311 | -80.86709 | 35879 ft | 447 kts | 265° |
| 2026-04-24 22:29 | 9.99858 | -80.96149 | 35879 ft | 447 kts | 265° |
| 2026-04-24 22:29 | 9.99576 | -81.02451 | 35882 ft | 447 kts | 266° |
| 2026-04-24 22:30 | 9.99490 | -81.07708 | 35881 ft | 447 kts | 268° |
| 2026-04-24 22:30 | 9.99498 | -81.14038 | 35884 ft | 447 kts | 268° |
| 2026-04-24 22:31 | 9.99493 | -81.20334 | 35882 ft | 447 kts | 268° |
| 2026-04-24 22:31 | 9.99442 | -81.26613 | 35879 ft | 447 kts | 268° |
| 2026-04-24 22:32 | 9.99373 | -81.32920 | 35880 ft | 447 kts | 268° |
| 2026-04-24 22:32 | 9.99306 | -81.39249 | 35884 ft | 447 kts | 268° |
| 2026-04-24 22:33 | 9.99247 | -81.45535 | 35883 ft | 447 kts | 268° |
| 2026-04-24 22:33 | 9.99187 | -81.51855 | 35884 ft | 447 kts | 268° |
| 2026-04-24 22:34 | 9.99132 | -81.58175 | 35884 ft | 447 kts | 268° |
| 2026-04-24 22:34 | 9.99069 | -81.64487 | 35886 ft | 447 kts | 268° |
| 2026-04-24 22:35 | 9.98904 | -81.70756 | 35884 ft | 445 kts | 259° |
| 2026-04-24 22:35 | 9.98114 | -81.73793 | 35883 ft | 442 kts | 248° |
| 2026-04-24 22:35 | 9.97031 | -81.76682 | 35878 ft | 442 kts | 248° |
| 2026-04-24 22:36 | 9.94766 | -81.82509 | 35878 ft | 443 kts | 247° |
| 2026-04-24 22:36 | 9.92496 | -81.88299 | 35873 ft | 443 kts | 248° |
| 2026-04-24 22:37 | 9.90580 | -81.94254 | 35876 ft | 445 kts | 262° |
| 2026-04-24 22:37 | 9.89952 | -82.00481 | 35877 ft | 446 kts | 263° |
| 2026-04-24 22:38 | 9.89365 | -82.06750 | 35879 ft | 446 kts | 263° |
| 2026-04-24 22:38 | 9.88777 | -82.13047 | 35879 ft | 447 kts | 263° |
| 2026-04-24 22:39 | 9.88180 | -82.19307 | 35883 ft | 447 kts | 263° |
| 2026-04-24 22:39 | 9.87576 | -82.25587 | 35889 ft | 448 kts | 263° |
| 2026-04-24 22:40 | 9.86973 | -82.31885 | 35892 ft | 448 kts | 263° |
| 2026-04-24 22:40 | 9.86377 | -82.38138 | 35896 ft | 448 kts | 263° |
| 2026-04-24 22:41 | 9.85771 | -82.44448 | 35876 ft | 448 kts | 264° |
| 2026-04-24 22:41 | 9.85162 | -82.50704 | 35893 ft | 448 kts | 264° |
| 2026-04-24 22:42 | 9.84550 | -82.57012 | 35892 ft | 447 kts | 264° |
| 2026-04-24 22:42 | 9.83948 | -82.63283 | 35891 ft | 447 kts | 264° |
| 2026-04-24 22:43 | 9.83337 | -82.69550 | 35893 ft | 447 kts | 264° |
| 2026-04-24 22:43 | 9.82727 | -82.75807 | 35891 ft | 447 kts | 264° |
| 2026-04-24 22:44 | 9.82114 | -82.82098 | 35889 ft | 447 kts | 264° |
| 2026-04-24 22:44 | 9.81498 | -82.88374 | 35892 ft | 447 kts | 264° |
| 2026-04-24 22:45 | 9.80886 | -82.94666 | 35597 ft | 448 kts | 264° |
| 2026-04-24 22:45 | 9.80582 | -82.97788 | 35040 ft | 449 kts | 264° |
| 2026-04-24 22:45 | 9.80269 | -83.00969 | 34168 ft | 455 kts | 263° |
| 2026-04-24 22:46 | 9.79947 | -83.04187 | 33200 ft | 461 kts | 263° |
| 2026-04-24 22:46 | 9.79625 | -83.07436 | 32260 ft | 464 kts | 264° |
| 2026-04-24 22:46 | 9.79304 | -83.10712 | 31251 ft | 469 kts | 264° |
| 2026-04-24 22:46 | 9.78984 | -83.13973 | 30281 ft | 473 kts | 264° |
| 2026-04-24 22:47 | 9.78656 | -83.17327 | 29122 ft | 479 kts | 265° |
| 2026-04-24 22:47 | 9.78335 | -83.20664 | 28464 ft | 472 kts | 265° |
| 2026-04-24 22:47 | 9.78016 | -83.23943 | 27751 ft | 467 kts | 265° |
| 2026-04-24 22:47 | 9.77698 | -83.27188 | 27059 ft | 462 kts | 265° |
| 2026-04-24 22:48 | 9.77377 | -83.30430 | 26373 ft | 458 kts | 265° |
| 2026-04-24 22:48 | 9.77057 | -83.33640 | 25699 ft | 454 kts | 265° |
| 2026-04-24 22:48 | 9.76737 | -83.36817 | 25030 ft | 451 kts | 265° |
| 2026-04-24 22:48 | 9.76417 | -83.39974 | 24358 ft | 448 kts | 265° |
| 2026-04-24 22:49 | 9.76109 | -83.43072 | 23701 ft | 446 kts | 265° |
| 2026-04-24 22:49 | 9.75800 | -83.46196 | 22989 ft | 443 kts | 265° |
| 2026-04-24 22:49 | 9.75507 | -83.49298 | 22320 ft | 439 kts | 266° |
| 2026-04-24 22:49 | 9.75241 | -83.52348 | 21638 ft | 424 kts | 266° |
| 2026-04-24 22:50 | 9.75014 | -83.55247 | 20995 ft | 409 kts | 266° |
| 2026-04-24 22:50 | 9.74801 | -83.58077 | 20356 ft | 395 kts | 267° |
| 2026-04-24 22:50 | 9.74599 | -83.60813 | 19735 ft | 384 kts | 267° |
| 2026-04-24 22:50 | 9.74400 | -83.63479 | 19123 ft | 374 kts | 266° |
| 2026-04-24 22:51 | 9.74204 | -83.66058 | 18534 ft | 365 kts | 267° |
| 2026-04-24 22:51 | 9.74011 | -83.68610 | 17877 ft | 358 kts | 266° |
| 2026-04-24 22:51 | 9.73824 | -83.71105 | 17202 ft | 351 kts | 266° |
| 2026-04-24 22:51 | 9.73649 | -83.73555 | 16528 ft | 345 kts | 266° |
| 2026-04-24 22:52 | 9.73479 | -83.75938 | 15881 ft | 339 kts | 266° |
| 2026-04-24 22:52 | 9.73308 | -83.78302 | 15243 ft | 335 kts | 266° |
| 2026-04-24 22:52 | 9.73137 | -83.80657 | 14614 ft | 331 kts | 266° |
| 2026-04-24 22:52 | 9.73080 | -83.82490 | 14048 ft | 321 kts | 275° |
| 2026-04-24 22:53 | 9.73564 | -83.84629 | 13378 ft | 309 kts | 292° |
| 2026-04-24 22:53 | 9.74657 | -83.86482 | 12707 ft | 308 kts | 309° |
| 2026-04-24 22:53 | 9.76151 | -83.88021 | 12091 ft | 305 kts | 315° |
| 2026-04-24 22:53 | 9.77651 | -83.89502 | 11490 ft | 303 kts | 314° |
| 2026-04-24 22:54 | 9.79142 | -83.90992 | 11090 ft | 293 kts | 314° |
| 2026-04-24 22:54 | 9.80554 | -83.92410 | 10708 ft | 283 kts | 314° |
| 2026-04-24 22:54 | 9.81938 | -83.93797 | 10368 ft | 274 kts | 314° |
| 2026-04-24 22:54 | 9.83277 | -83.95136 | 10033 ft | 266 kts | 314° |
| 2026-04-24 22:55 | 9.84558 | -83.96421 | 9669 ft | 258 kts | 314° |
| 2026-04-24 22:55 | 9.85816 | -83.97683 | 9299 ft | 251 kts | 314° |
| 2026-04-24 22:55 | 9.87048 | -83.98918 | 8929 ft | 246 kts | 314° |
| 2026-04-24 22:55 | 9.88253 | -84.00126 | 8558 ft | 241 kts | 314° |
| 2026-04-24 22:56 | 9.89333 | -84.01384 | 8364 ft | 235 kts | 297° |
| 2026-04-24 22:56 | 9.89648 | -84.02930 | 8593 ft | 215 kts | 259° |
| 2026-04-24 22:56 | 9.89254 | -84.04315 | 9522 ft | 198 kts | 250° |
| 2026-04-24 22:56 | 9.88765 | -84.05607 | 9873 ft | 205 kts | 248° |
| 2026-04-24 22:57 | 9.88197 | -84.07047 | 9995 ft | 233 kts | 248° |
| 2026-04-24 22:57 | 9.87572 | -84.08619 | 10011 ft | 243 kts | 248° |
| 2026-04-24 22:57 | 9.86939 | -84.10223 | 10224 ft | 247 kts | 248° |
| 2026-04-24 22:57 | 9.86306 | -84.11829 | 10983 ft | 248 kts | 248° |
| 2026-04-24 22:58 | 9.85654 | -84.13461 | 11668 ft | 252 kts | 248° |
| 2026-04-24 22:58 | 9.84985 | -84.15127 | 11932 ft | 255 kts | 248° |
| 2026-04-24 22:58 | 9.84313 | -84.16798 | 11992 ft | 253 kts | 248° |
| 2026-04-24 22:58 | 9.83653 | -84.18440 | 11785 ft | 251 kts | 248° |
| 2026-04-24 22:59 | 9.83007 | -84.20058 | 11511 ft | 250 kts | 248° |
| 2026-04-24 22:59 | 9.82356 | -84.21692 | 11250 ft | 248 kts | 248° |
| 2026-04-24 22:59 | 9.81410 | -84.24899 | 10945 ft | 224 kts | 272° |
| 2026-04-24 23:00 | 9.81733 | -84.26393 | 10629 ft | 216 kts | 294° |
| 2026-04-24 23:00 | 9.82630 | -84.27595 | 10101 ft | 220 kts | 320° |
| 2026-04-24 23:00 | 9.83970 | -84.28274 | 9851 ft | 211 kts | 347° |
| 2026-04-24 23:00 | 9.85413 | -84.28261 | 9643 ft | 207 kts | 15° |
| 2026-04-24 23:01 | 9.86661 | -84.27571 | 9416 ft | 205 kts | 44° |
| 2026-04-24 23:01 | 9.87637 | -84.26525 | 9205 ft | 205 kts | 46° |
| 2026-04-24 23:01 | 9.88617 | -84.25477 | 9003 ft | 205 kts | 46° |
| 2026-04-24 23:01 | 9.89603 | -84.24427 | 8721 ft | 205 kts | 46° |
| 2026-04-24 23:02 | 9.90588 | -84.23377 | 8391 ft | 206 kts | 46° |
| 2026-04-24 23:02 | 9.91575 | -84.22324 | 8031 ft | 209 kts | 46° |
| 2026-04-24 23:02 | 9.92580 | -84.21250 | 7668 ft | 210 kts | 46° |
| 2026-04-24 23:02 | 9.93585 | -84.20178 | 7314 ft | 210 kts | 46° |
| 2026-04-24 23:03 | 9.94578 | -84.19120 | 6975 ft | 207 kts | 46° |
| 2026-04-24 23:03 | 9.95359 | -84.17928 | 6700 ft | 201 kts | 72° |
| 2026-04-24 23:03 | 9.95483 | -84.16551 | 6658 ft | 195 kts | 101° |
| 2026-04-24 23:03 | 9.95139 | -84.15217 | 6616 ft | 196 kts | 106° |
| 2026-04-24 23:04 | 9.94771 | -84.13880 | 6471 ft | 196 kts | 105° |
| 2026-04-24 23:04 | 9.94712 | -84.12516 | 6227 ft | 196 kts | 78° |
| 2026-04-24 23:04 | 9.95286 | -84.11279 | 5961 ft | 194 kts | 50° |
| 2026-04-24 23:04 | 9.96329 | -84.10458 | 5786 ft | 187 kts | 24° |
| 2026-04-24 23:05 | 9.97516 | -84.10118 | 5628 ft | 172 kts | 5° |
| 2026-04-24 23:05 | 9.98680 | -84.10161 | 5587 ft | 161 kts | 347° |
| 2026-04-24 23:05 | 9.99707 | -84.10519 | 5549 ft | 156 kts | 330° |
| 2026-04-24 23:05 | 10.00579 | -84.11157 | 5466 ft | 153 kts | 313° |
| 2026-04-24 23:06 | 10.01191 | -84.12018 | 5306 ft | 150 kts | 293° |
| 2026-04-24 23:06 | 10.01439 | -84.13036 | 5052 ft | 148 kts | 273° |
| 2026-04-24 23:06 | 10.01453 | -84.14086 | 4734 ft | 148 kts | 265° |
| 2026-04-24 23:06 | 10.01331 | -84.15106 | 4441 ft | 145 kts | 260° |
| 2026-04-24 23:07 | 10.01080 | -84.16078 | 4174 ft | 143 kts | 253° |
| 2026-04-24 23:07 | 10.00794 | -84.17046 | 3906 ft | 142 kts | 254° |
| 2026-04-24 23:07 | 10.00468 | -84.17995 | 3659 ft | 142 kts | 250° |
| 2026-04-24 23:07 | 10.00114 | -84.18929 | 3397 ft | 141 kts | 250° |
| 2026-04-24 23:08 | 9.99775 | -84.19849 | 3123 ft | 140 kts | 250° |
| 2026-04-24 23:08 | 9.99443 | -84.20744 | 3028 ft | 119 kts | 249° |
| 2026-04-24 23:08 | 9.99257 | -84.21238 | 2997 ft | 32 kts | 249° |
| 2026-04-24 23:08 | 9.99210 | -84.21361 | 2990 ft | 19 kts | 249° |
| 2026-04-24 23:09 | 9.99159 | -84.21497 | 2985 ft | 22 kts | 249° |
| 2026-04-24 23:09 | 9.99106 | -84.21637 | 2977 ft | 15 kts | 248° |
| 2026-04-24 23:09 | 9.99115 | -84.21700 | 2975 ft | 9 kts | 328° |
| 2026-04-24 23:09 | 9.99167 | -84.21710 | 2969 ft | 9 kts | 18° |
| 2026-04-24 23:10 | 9.99195 | -84.21665 | 2971 ft | 9 kts | 69° |
| 2026-04-24 23:10 | 9.99226 | -84.21584 | 2976 ft | 14 kts | 69° |
| 2026-04-24 23:10 | 9.99260 | -84.21492 | 2983 ft | 14 kts | 69° |
| 2026-04-24 23:10 | 9.99294 | -84.21401 | 2991 ft | 14 kts | 69° |
| 2026-04-24 23:11 | 9.99328 | -84.21309 | 2998 ft | 15 kts | 69° |
| 2026-04-24 23:11 | 9.99358 | -84.21229 | 3002 ft | 10 kts | 69° |
| 2026-04-24 23:11 | 9.99390 | -84.21144 | 3006 ft | 16 kts | 69° |
| 2026-04-24 23:11 | 9.99432 | -84.21034 | 3018 ft | 14 kts | 70° |
| 2026-04-24 23:12 | 9.99455 | -84.20970 | 3026 ft | 7 kts | 69° |
| 2026-04-24 23:12 | 9.99469 | -84.20933 | 3030 ft | 9 kts | 69° |
| 2026-04-24 23:12 | 9.99490 | -84.20878 | 3033 ft | 6 kts | 69° |
| 2026-04-24 23:12 | 9.99515 | -84.20811 | 3035 ft | 14 kts | 69° |
| 2026-04-24 23:13 | 9.99539 | -84.20749 | 3035 ft | 13 kts | 69° |
| 2026-04-24 23:13 | 9.99568 | -84.20669 | 3036 ft | 11 kts | 70° |
| 2026-04-24 23:13 | 9.99593 | -84.20601 | 3034 ft | 10 kts | 70° |
| 2026-04-24 23:13 | 9.99615 | -84.20541 | 3035 ft | 8 kts | 70° |
| 2026-04-24 23:14 | 9.99634 | -84.20492 | 3034 ft | 7 kts | 68° |
| 2026-04-24 23:14 | 9.99650 | -84.20451 | 3035 ft | 5 kts | 70° |
| 2026-04-24 23:14 | 9.99661 | -84.20420 | 3034 ft | 4 kts | 72° |
| 2026-04-24 23:14 | 9.99677 | -84.20403 | 3034 ft | 4 kts | 19° |
| 2026-04-24 23:15 | 9.99698 | -84.20409 | 3034 ft | 3 kts | 341° |
| 2026-04-24 23:15 | 9.99717 | -84.20415 | 3034 ft | 2 kts | 340° |
| 2026-04-24 23:15 | 9.99721 | -84.20417 | 3034 ft | 0 kts | 340° |